WetterOnline ( https://www.wetteronline.de )

Wetter aktuell Bielefeld

Aktuelles Wetter: Bad Salzuflen (139m)

6-stündlich | Neueste Meldungen
Ortszeit Temperatur Wetter
So, 01.10. 14:00 20.2° C wolkig
So, 01.10. 8:00 13.4° C bedeckt
So, 01.10. 2:00 13.4° C bedeckt
Sa, 30.09. 20:00 14.2° C bedeckt
Sa, 30.09. 14:00 18.6° C leicht bewölkt
Sa, 30.09. 8:00 11.1° C bedeckt
Sa, 30.09. 2:00 11.7° C fast wolkenlos
Fr, 29.09. 20:00 16.3° C bedeckt
Ortszeit Temperatur Wetter
So, 01.10. 14:30 20.8° C bewölkt
So, 01.10. 14:20 20.8° C bewölkt
So, 01.10. 14:10 20.5° C bedeckt
So, 01.10. 14:00 20.2° C wolkig
So, 01.10. 13:50 20.2° C wolkig
So, 01.10. 13:40 19.5° C bedeckt
So, 01.10. 13:30 18.9° C bewölkt
So, 01.10. 13:00 18.0° C bedeckt
So, 01.10. 12:30 17.7° C bedeckt
So, 01.10. 12:00 17.2° C bedeckt
So, 01.10. 11:30 16.9° C bedeckt
Ortszeit Relative Feuchte Sichtweite
So, 01.10. 14:00 70% 40 km
So, 01.10. 8:00 85% 45 km
So, 01.10. 2:00 81% 40 km
Sa, 30.09. 20:00 79% 45 km
Sa, 30.09. 14:00 65% 50 km
Sa, 30.09. 8:00 98% 19 km
Sa, 30.09. 2:00 97% 27 km
Fr, 29.09. 20:00 89% 55 km
Ortszeit Relative Feuchte Sichtweite
So, 01.10. 14:30 65% 28 km
So, 01.10. 14:20 65% -
So, 01.10. 14:10 67% -
So, 01.10. 14:00 70% 40 km
So, 01.10. 13:50 70% -
So, 01.10. 13:40 69% -
So, 01.10. 13:30 69% 40 km
So, 01.10. 13:00 71% 35 km
So, 01.10. 12:30 73% 40 km
So, 01.10. 12:00 72% 45 km
So, 01.10. 11:30 73% 55 km
Ortszeit Niederschlagsmenge Niederschlagsart
So, 01.10. 14:00 0.0 l/m2 in 6 Std. -
So, 01.10. 8:00 0.0 l/m2 in 12 Std. -
So, 01.10. 2:00 0.0 l/m2 in 6 Std. -
Sa, 30.09. 20:00 0.0 l/m2 in 12 Std. -
Sa, 30.09. 14:00 0.0 l/m2 in 6 Std. -
Sa, 30.09. 8:00 0.0 l/m2 in 12 Std. -
Sa, 30.09. 2:00 0.0 l/m2 in 6 Std. -
Fr, 29.09. 20:00 2 l/m2 in 12 Std. Regen
Ortszeit Niederschlagsmenge Niederschlagsart
So, 01.10. 14:30 0.0 l/m2 in 30 Min -
So, 01.10. 14:20 keine Meldung -
So, 01.10. 14:10 keine Meldung -
So, 01.10. 14:00 0.0 l/m2 in 1 Std. -
So, 01.10. 13:50 keine Meldung -
So, 01.10. 13:40 keine Meldung -
So, 01.10. 13:30 0.0 l/m2 in 30 Min -
So, 01.10. 13:00 0.0 l/m2 in 1 Std. -
So, 01.10. 12:30 0.0 l/m2 in 30 Min -
So, 01.10. 12:00 0.0 l/m2 in 1 Std. -
So, 01.10. 11:30 0.0 l/m2 in 30 Min -
Ortszeit Stärke Spitze Richtung
km/h Bft. km/h Grad Sektor
So, 01.10. 14:00 13 3 30 220° SW
So, 01.10. 8:00 4 1 11 190° S
So, 01.10. 2:00 6 1 9 210° SW
Sa, 30.09. 20:00 4 1 29 210° SW
Sa, 30.09. 14:00 9 2 24 240° SW
Sa, 30.09. 8:00 7 2 14 210° SW
Sa, 30.09. 2:00 7 2 29 240° SW
Fr, 29.09. 20:00 11 2 43 310° NW
Ortszeit Stärke Spitze Richtung
km/h Bft. km/h Grad Sektor
So, 01.10. 14:30 14 3 25 220° SW
So, 01.10. 14:20 14 3 - 220° SW
So, 01.10. 14:10 15 3 - 210° SW
So, 01.10. 14:00 13 3 30 220° SW
So, 01.10. 13:50 13 3 - 220° SW
So, 01.10. 13:40 15 3 - 220° SW
So, 01.10. 13:30 14 3 29 220° SW
So, 01.10. 13:00 13 3 24 220° SW
So, 01.10. 12:30 11 2 22 220° SW
So, 01.10. 12:00 11 2 22 220° SW
So, 01.10. 11:30 7 2 18 210° SW
Ortszeit Untergrenze Bedeckung Gattung
total tief tief mittel hoch
So, 01.10. 14:00 7200 m 8/8 0/8 - - -
So, 01.10. 8:00 1440 m 8/8 8/8 - - -
So, 01.10. 2:00 2700 m 8/8 8/8 - - -
Sa, 30.09. 20:00 4500 m 8/8 8/8 - - -
Sa, 30.09. 14:00 930 m 2/8 2/8 - - -
Sa, 30.09. 8:00 6600 m 8/8 8/8 - - -
Sa, 30.09. 2:00 660 m 1/8 1/8 - - -
Fr, 29.09. 20:00 360 m 8/8 8/8 - - -
Ortszeit Bedeckungsgrad in Achtel und Wolkenuntergrenze
So, 01.10. 14:30 5(6600m) 8(7200m)
So, 01.10. 14:20 5(6600m) 8(7200m)
So, 01.10. 14:10 8
So, 01.10. 14:00 8(7200m)
So, 01.10. 13:50 8(7200m)
So, 01.10. 13:40 8
So, 01.10. 13:30 3(1020m) 5(1800m) 8(7200m)
So, 01.10. 13:00 8(1020m)
So, 01.10. 12:30 8(1020m)
So, 01.10. 12:00 8(1020m)
So, 01.10. 11:30 8(1020m)
Ortszeit Luftdruck NN (hPa) Tendenz (hPa in 3 Std.)
So, 01.10. 14:00 1023 - 0,8
So, 01.10. 8:00 1024 + 0,1
So, 01.10. 2:00 1025 - 0,4
Sa, 30.09. 20:00 1026 + 0,3
Sa, 30.09. 14:00 1027 0,0
Sa, 30.09. 8:00 1026 + 0,5
Sa, 30.09. 2:00 1025 + 1,8
Fr, 29.09. 20:00 1020 + 3,6
Ortszeit Luftdruck NN (hPa) Tendenz (hPa in 3 Std.)
So, 01.10. 14:30 1023 - 0,9
So, 01.10. 14:20 1023 keine Meldung
So, 01.10. 14:10 1023 keine Meldung
So, 01.10. 14:00 1023 - 0,8
So, 01.10. 13:50 1023 keine Meldung
So, 01.10. 13:40 1023 keine Meldung
So, 01.10. 13:30 1024 - 0,6
So, 01.10. 13:00 1024 - 0,2
So, 01.10. 12:30 1024 0,0
So, 01.10. 12:00 1024 + 0,2
So, 01.10. 11:30 1024 + 0,1
Ortszeit Schneehöhe (cm)
So, 01.10. 14:00 0
So, 01.10. 8:00 0
So, 01.10. 2:00 0
Sa, 30.09. 20:00 0
Sa, 30.09. 14:00 0
Sa, 30.09. 8:00 0
Sa, 30.09. 2:00 0
Fr, 29.09. 20:00 0
Ortszeit Schneehöhe (cm)
So, 01.10. 14:30 0
So, 01.10. 14:20 0
So, 01.10. 14:10 -
So, 01.10. 14:00 0
So, 01.10. 13:50 0
So, 01.10. 13:40 -
So, 01.10. 13:30 0
So, 01.10. 13:00 0
So, 01.10. 12:30 0
So, 01.10. 12:00 0
So, 01.10. 11:30 0
Link zu dieser Seite / Seite empfehlen

Das Wetter in ...